createdAt,value
2018-07-04T00:00:38.565Z,17.80
2018-07-04T00:03:18.388Z,17.80
2018-07-04T00:05:58.039Z,17.80
2018-07-04T00:08:37.692Z,17.70
2018-07-04T00:16:24.374Z,17.30
2018-07-04T00:19:04.127Z,17.20
2018-07-04T00:21:43.651Z,17.30
2018-07-04T00:24:23.191Z,17.30
2018-07-04T00:27:02.848Z,17.30
2018-07-04T00:29:42.415Z,17.40
2018-07-04T00:32:22.045Z,17.40
2018-07-04T00:35:01.702Z,17.40
2018-07-04T00:37:41.244Z,17.40
2018-07-04T01:28:35.487Z,17.30
2018-07-04T01:31:15.126Z,16.20
2018-07-04T01:33:54.792Z,16.10
2018-07-04T01:36:34.336Z,16.10
2018-07-04T01:39:14.025Z,16.20
2018-07-04T01:41:53.588Z,16.30
2018-07-04T01:44:33.315Z,16.40
2018-07-04T01:47:12.977Z,16.60
2018-07-04T01:49:52.514Z,16.70
2018-07-04T01:52:32.142Z,16.70
2018-07-04T01:55:11.644Z,16.80
2018-07-04T01:57:51.115Z,16.80
2018-07-04T02:00:30.748Z,16.90
2018-07-04T02:03:10.352Z,16.90
2018-07-04T02:05:50.042Z,16.90
2018-07-04T02:08:29.735Z,16.90
2018-07-04T02:11:09.163Z,17.00
2018-07-04T02:13:48.863Z,17.00
2018-07-04T02:16:28.426Z,16.90
2018-07-04T02:19:07.933Z,16.90
2018-07-04T02:21:47.708Z,16.80
2018-07-04T02:24:27.401Z,16.80
2018-07-04T02:27:07.153Z,16.70
2018-07-04T02:29:46.702Z,16.70
2018-07-04T02:32:26.231Z,16.60
2018-07-04T02:35:05.899Z,16.60
2018-07-04T02:37:45.585Z,16.60
2018-07-04T02:42:59.393Z,16.60
2018-07-04T02:45:38.927Z,16.70
2018-07-04T02:48:18.630Z,16.70
2018-07-04T02:50:58.817Z,16.70
2018-07-04T02:53:38.464Z,16.70
2018-07-04T02:56:18.036Z,16.70
2018-07-04T02:58:57.555Z,16.70
2018-07-04T03:01:37.312Z,16.60
2018-07-04T03:04:17.329Z,16.60
2018-07-04T03:06:56.856Z,16.50
2018-07-04T03:09:36.414Z,16.50
2018-07-04T03:12:15.921Z,16.50
2018-07-04T03:14:55.443Z,16.50
2018-07-04T03:17:35.365Z,16.40
2018-07-04T03:20:14.898Z,16.40
2018-07-04T03:25:28.117Z,16.40
2018-07-04T03:28:07.781Z,16.40
2018-07-04T03:30:47.487Z,16.30
2018-07-04T03:33:27.183Z,16.30
2018-07-04T03:36:06.729Z,16.30
2018-07-04T03:38:46.259Z,16.40
2018-07-04T03:41:25.807Z,16.40
2018-07-04T03:44:05.416Z,16.50
2018-07-04T03:46:45.076Z,16.50
2018-07-04T03:49:24.693Z,16.60
2018-07-04T03:52:04.412Z,16.60
2018-07-04T03:54:43.885Z,16.60
2018-07-04T03:57:23.560Z,16.50
2018-07-04T04:00:03.240Z,16.60
2018-07-04T04:02:42.781Z,16.40
2018-07-04T04:05:22.367Z,16.40
2018-07-04T04:08:01.965Z,16.40
2018-07-04T04:10:41.467Z,16.40
2018-07-04T04:13:21.186Z,16.40
2018-07-04T04:16:00.877Z,16.50
2018-07-04T04:18:40.493Z,16.60
2018-07-04T04:21:20.201Z,16.60
2018-07-04T04:23:59.780Z,16.60
2018-07-04T04:26:39.428Z,16.60
2018-07-04T04:29:19.158Z,16.60
2018-07-04T04:31:58.838Z,16.60
2018-07-04T04:34:38.387Z,16.70
2018-07-04T04:39:51.471Z,16.50
2018-07-04T04:42:31.143Z,16.50
2018-07-04T04:45:10.885Z,16.40
2018-07-04T04:47:50.345Z,16.40
2018-07-04T04:50:30.061Z,16.50
2018-07-04T04:53:09.717Z,16.60
2018-07-04T04:55:49.384Z,16.70
2018-07-04T04:58:29.003Z,16.60
2018-07-04T05:01:08.575Z,16.60
2018-07-04T05:03:48.251Z,16.70
2018-07-04T05:06:27.921Z,16.80
2018-07-04T05:09:07.549Z,16.80
2018-07-04T05:11:47.196Z,16.80
2018-07-04T05:14:26.839Z,16.80
2018-07-04T05:17:06.511Z,16.90
2018-07-04T05:19:46.063Z,16.90
2018-07-04T05:22:25.545Z,17.10
2018-07-04T05:25:05.125Z,17.20
2018-07-04T05:27:44.607Z,17.40
2018-07-04T05:30:24.283Z,17.50
2018-07-04T05:33:04.321Z,17.60
2018-07-04T05:35:43.829Z,17.70
2018-07-04T05:38:23.239Z,17.90
2018-07-04T05:43:36.466Z,18.20
2018-07-04T05:46:16.146Z,18.30
2018-07-04T05:48:55.797Z,18.40
2018-07-04T05:51:35.409Z,18.60
2018-07-04T05:54:15.122Z,18.70
2018-07-04T05:56:54.818Z,18.90
2018-07-04T05:59:34.313Z,19.00
2018-07-04T06:02:14.009Z,19.10
2018-07-04T06:07:27.206Z,19.30
2018-07-04T06:10:06.885Z,19.30
2018-07-04T06:12:46.451Z,19.40
2018-07-04T06:15:26.086Z,19.50
2018-07-04T06:18:05.703Z,19.60
2018-07-04T06:20:45.288Z,19.60
2018-07-04T06:23:24.716Z,19.60
2018-07-04T06:26:04.477Z,19.60
2018-07-04T06:28:44.517Z,19.70
2018-07-04T06:31:24.207Z,19.80
2018-07-04T06:34:03.887Z,20.00
2018-07-04T06:41:32.620Z,20.20
2018-07-04T06:43:59.877Z,20.20
2018-07-04T06:46:27.159Z,20.20
2018-07-04T06:48:54.470Z,20.30
2018-07-04T06:51:21.777Z,20.20
2018-07-04T06:53:49.075Z,20.30
2018-07-04T06:58:43.880Z,20.40
2018-07-04T07:01:11.181Z,20.50
2018-07-04T07:03:50.853Z,20.60
2018-07-04T07:06:30.525Z,20.60
2018-07-04T07:09:10.258Z,20.70
2018-07-04T07:11:50.282Z,20.70
2018-07-04T07:14:30.341Z,20.80
2018-07-04T07:17:09.921Z,20.90
2018-07-04T07:22:23.277Z,21.10
2018-07-04T07:27:36.327Z,21.20
2018-07-04T07:30:15.912Z,21.30
2018-07-04T07:32:55.536Z,21.40
2018-07-04T07:35:35.241Z,21.60
2018-07-04T07:38:14.977Z,21.70
2018-07-04T07:43:28.104Z,22.10
2018-07-04T07:46:07.720Z,22.30
2018-07-04T07:48:47.405Z,22.50
2018-07-04T07:51:26.947Z,22.60
2018-07-04T07:56:40.535Z,22.80
2018-07-04T07:59:20.080Z,22.70
2018-07-04T08:01:59.767Z,22.90
2018-07-04T09:26:48.799Z,23.40
2018-07-04T09:29:28.492Z,27.60
2018-07-04T09:32:08.197Z,27.40
2018-07-04T09:34:47.956Z,27.40
2018-07-04T09:37:27.414Z,27.40
2018-07-04T09:40:07.906Z,27.40
2018-07-04T09:42:47.345Z,27.50
2018-07-04T09:45:27.101Z,27.70
2018-07-04T09:48:06.811Z,27.50
2018-07-04T09:50:46.439Z,27.70
2018-07-04T09:53:26.030Z,27.80
2018-07-04T09:56:05.673Z,28.00
2018-07-04T09:58:45.317Z,28.30
2018-07-04T10:01:26.911Z,27.80
2018-07-04T10:04:06.528Z,27.60
2018-07-04T10:06:46.405Z,27.50
2018-07-04T10:09:27.260Z,27.40
2018-07-04T10:12:06.892Z,27.10
2018-07-04T10:14:46.315Z,26.90
2018-07-04T10:17:26.061Z,26.90
2018-07-04T10:20:05.808Z,26.60
2018-07-04T10:22:45.392Z,26.50
2018-07-04T10:27:58.540Z,26.90
2018-07-04T10:30:38.100Z,27.40
2018-07-04T10:33:17.806Z,27.90
2018-07-04T10:41:04.556Z,27.80
2018-07-04T10:43:44.260Z,27.50
2018-07-04T10:46:23.946Z,27.30
2018-07-04T10:49:03.512Z,27.40
2018-07-04T10:51:43.151Z,27.80
2018-07-04T10:54:22.854Z,28.00
2018-07-04T10:57:02.385Z,28.40
2018-07-04T10:59:42.096Z,28.60
2018-07-04T11:02:21.551Z,28.70
2018-07-04T11:05:01.178Z,28.90
2018-07-04T11:07:40.757Z,28.80
2018-07-04T11:10:20.260Z,28.90
2018-07-04T11:12:59.776Z,28.80
2018-07-04T11:15:39.319Z,28.70
2018-07-04T11:18:18.930Z,29.00
2018-07-04T11:20:58.596Z,29.40
2018-07-04T11:26:11.776Z,29.90
2018-07-04T11:28:51.469Z,29.80
2018-07-04T11:31:31.158Z,29.90
2018-07-04T11:34:15.267Z,30.10
2018-07-04T11:36:54.839Z,30.30
2018-07-04T11:39:34.411Z,30.20
2018-07-04T11:42:14.380Z,30.40
2018-07-04T11:44:53.948Z,30.40
2018-07-04T11:47:21.223Z,30.50
2018-07-04T11:49:48.492Z,29.90
2018-07-04T11:52:15.764Z,29.70
2018-07-04T11:54:43.045Z,29.70
2018-07-04T11:57:10.785Z,29.60
2018-07-04T11:59:38.053Z,29.50
2018-07-04T12:02:05.295Z,29.30
2018-07-04T12:04:44.841Z,29.40
2018-07-04T12:07:12.101Z,29.40
2018-07-04T12:09:40.243Z,29.30
2018-07-04T12:12:07.561Z,29.00
2018-07-04T12:17:02.485Z,28.80
2018-07-04T12:19:29.781Z,28.90
2018-07-04T12:21:57.037Z,29.00
2018-07-04T12:24:24.296Z,29.00
2018-07-04T12:26:51.797Z,29.20
2018-07-04T12:29:19.061Z,29.20
2018-07-04T12:31:46.319Z,29.10
2018-07-04T12:34:13.602Z,29.10
2018-07-04T12:36:40.883Z,29.10
2018-07-04T12:39:08.141Z,29.30
2018-07-04T12:41:35.438Z,29.50
2018-07-04T12:44:02.711Z,29.60
2018-07-04T12:46:30.028Z,29.80
2018-07-04T12:49:02.429Z,29.90
2018-07-04T12:51:31.426Z,29.90
2018-07-04T12:54:04.045Z,29.70
2018-07-04T12:56:43.633Z,29.80
2018-07-04T12:59:23.271Z,29.60
2018-07-04T13:02:03.279Z,29.50
2018-07-04T13:04:43.305Z,29.30
2018-07-04T13:07:23.745Z,29.10
2018-07-04T13:10:03.320Z,29.00
2018-07-04T13:13:45.774Z,28.90
2018-07-04T13:16:25.350Z,28.50
2018-07-04T13:19:05.019Z,28.30
2018-07-04T13:21:44.559Z,28.20
2018-07-04T13:24:24.171Z,27.90
2018-07-04T13:29:37.295Z,27.30
2018-07-04T13:32:17.405Z,26.90
2018-07-04T13:34:56.856Z,26.90
2018-07-04T13:40:09.757Z,26.50
2018-07-04T13:42:49.473Z,26.40
2018-07-04T13:45:29.012Z,26.30
2018-07-04T13:48:08.725Z,26.30
2018-07-04T13:50:48.328Z,26.40
2018-07-04T13:53:27.947Z,26.40
2018-07-04T13:56:07.643Z,26.20
2018-07-04T13:58:47.337Z,26.20
2018-07-04T14:01:26.995Z,26.20
2018-07-04T14:04:06.679Z,26.30
2018-07-04T14:06:46.823Z,26.30
2018-07-04T14:09:26.458Z,26.40
2018-07-04T14:12:06.130Z,26.30
2018-07-04T14:14:45.659Z,26.30
2018-07-04T14:17:25.242Z,26.30
2018-07-04T14:20:04.944Z,26.30
2018-07-04T14:22:44.455Z,26.40
2018-07-04T14:25:24.144Z,26.60
2018-07-04T14:28:03.841Z,26.80
2018-07-04T14:30:43.415Z,26.80
2018-07-04T14:33:22.894Z,27.10
2018-07-04T14:36:02.494Z,27.30
2018-07-04T14:38:42.210Z,28.10
2018-07-04T14:41:21.788Z,28.20
2018-07-04T14:44:01.285Z,28.70
2018-07-04T14:46:40.937Z,29.10
2018-07-04T14:49:20.563Z,29.20
2018-07-04T14:52:00.174Z,29.50
2018-07-04T14:54:39.750Z,29.90
2018-07-04T14:57:19.358Z,30.30
2018-07-04T14:59:58.964Z,30.60
2018-07-04T15:02:38.641Z,30.70
2018-07-04T15:05:18.130Z,31.00
2018-07-04T15:07:57.816Z,31.10
2018-07-04T15:15:44.641Z,31.70
2018-07-04T15:18:24.244Z,31.70
2018-07-04T15:21:03.922Z,31.60
2018-07-04T15:23:43.959Z,31.60
2018-07-04T15:26:23.375Z,31.30
2018-07-04T15:29:03.106Z,31.50
2018-07-04T15:31:42.621Z,31.00
2018-07-04T15:36:55.601Z,29.80
2018-07-04T15:39:35.283Z,29.00
2018-07-04T15:42:14.846Z,28.30
2018-07-04T15:44:54.612Z,27.60
2018-07-04T15:47:34.059Z,27.00
2018-07-04T15:50:13.744Z,26.80
2018-07-04T15:52:53.314Z,26.60
2018-07-04T15:55:32.722Z,26.40
2018-07-04T15:58:12.264Z,26.30
2018-07-04T16:00:52.644Z,26.20
2018-07-04T16:03:32.368Z,26.20
2018-07-04T16:06:11.926Z,26.00
2018-07-04T16:11:25.089Z,25.90
2018-07-04T16:14:04.664Z,25.80
2018-07-04T16:16:44.549Z,25.60
2018-07-04T16:19:24.038Z,25.40
2018-07-04T16:22:03.615Z,25.10
2018-07-04T16:24:43.123Z,25.00
2018-07-04T16:27:22.673Z,24.90
2018-07-04T16:30:02.251Z,24.80
2018-07-04T16:32:41.863Z,24.60
2018-07-04T16:35:21.416Z,24.50
2018-07-04T16:38:01.149Z,24.50
2018-07-04T16:40:40.807Z,24.30
2018-07-04T16:43:20.308Z,24.20
2018-07-04T16:45:59.809Z,24.20
2018-07-04T16:51:12.915Z,24.20
2018-07-04T16:53:52.667Z,24.20
2018-07-04T16:56:32.208Z,24.20
2018-07-04T16:59:11.929Z,24.10
2018-07-04T17:01:51.462Z,23.90
2018-07-04T17:04:30.914Z,23.40
2018-07-04T17:07:10.711Z,23.30
2018-07-04T17:12:23.814Z,23.20
2018-07-04T17:15:03.567Z,23.20
2018-07-04T17:17:43.037Z,23.00
2018-07-04T17:20:22.618Z,22.30
2018-07-04T17:23:02.319Z,21.30
2018-07-04T17:25:41.882Z,20.50
2018-07-04T17:28:21.444Z,20.20
2018-07-04T17:31:01.153Z,20.10
2018-07-04T17:33:40.866Z,19.90
2018-07-04T17:36:20.561Z,19.70
2018-07-04T17:39:00.172Z,19.50
2018-07-04T17:41:39.826Z,19.40
2018-07-04T17:44:19.374Z,19.20
2018-07-04T17:46:58.998Z,18.90
2018-07-04T17:49:38.608Z,18.80
2018-07-04T17:52:18.243Z,18.80
2018-07-04T17:54:57.836Z,18.70
2018-07-04T17:57:37.569Z,18.70
2018-07-04T18:02:50.879Z,18.60
2018-07-04T18:05:30.338Z,18.80
2018-07-04T18:08:09.886Z,18.90
2018-07-04T18:10:49.431Z,19.00
2018-07-04T18:13:29.033Z,19.20
2018-07-04T18:16:08.905Z,19.20
2018-07-04T18:18:48.548Z,19.20
2018-07-04T18:21:28.049Z,19.10
2018-07-04T18:24:08.489Z,19.10
2018-07-04T18:26:48.196Z,19.10
2018-07-04T18:29:27.772Z,19.00
2018-07-04T18:32:07.864Z,18.80
2018-07-04T18:34:47.591Z,19.00
2018-07-04T18:37:27.576Z,19.10
2018-07-04T18:40:07.157Z,19.00
2018-07-04T18:42:46.662Z,19.00
2018-07-04T18:45:26.429Z,18.80
2018-07-04T18:48:06.439Z,18.70
2018-07-04T18:50:46.132Z,18.70
2018-07-04T18:53:25.664Z,18.90
2018-07-04T18:56:05.187Z,18.80
2018-07-04T18:58:45.298Z,18.90
2018-07-04T19:01:24.914Z,19.10
2018-07-04T19:04:04.504Z,19.40
2018-07-04T19:06:44.464Z,19.50
2018-07-04T19:09:24.024Z,19.50
2018-07-04T19:12:03.697Z,19.50
2018-07-04T19:17:16.798Z,19.50
2018-07-04T19:19:56.381Z,19.30
2018-07-04T19:22:35.926Z,19.40
2018-07-04T19:25:15.578Z,19.40
2018-07-04T19:27:55.168Z,19.40
2018-07-04T19:30:34.709Z,19.20
2018-07-04T19:33:14.408Z,19.10
2018-07-04T19:35:53.992Z,19.00
2018-07-04T19:38:33.635Z,18.80
2018-07-04T19:41:13.286Z,18.70
2018-07-04T19:43:52.805Z,18.50
2018-07-04T19:46:32.463Z,18.40
2018-07-04T19:49:12.710Z,18.50
2018-07-04T19:51:52.530Z,18.50
2018-07-04T19:54:32.032Z,18.40
2018-07-04T19:57:11.552Z,18.40
2018-07-04T19:59:51.033Z,18.40
2018-07-04T20:02:30.695Z,18.40
2018-07-04T20:05:11.159Z,18.30
2018-07-04T20:07:50.804Z,18.30
2018-07-04T20:10:30.497Z,18.30
2018-07-04T20:13:10.239Z,18.10
2018-07-04T20:15:49.911Z,17.80
2018-07-04T20:18:29.579Z,17.60
2018-07-04T20:21:09.247Z,17.50
2018-07-04T20:23:48.807Z,17.30
2018-07-04T20:26:28.395Z,17.30
2018-07-04T20:29:08.117Z,17.20
2018-07-04T20:31:47.868Z,17.20
2018-07-04T20:34:27.435Z,17.20
2018-07-04T20:37:07.104Z,17.30
2018-07-04T20:39:46.613Z,17.40
2018-07-04T20:42:26.235Z,17.50
2018-07-04T20:45:05.732Z,17.50
2018-07-04T20:47:45.464Z,17.50
2018-07-04T20:50:25.018Z,17.60
2018-07-04T20:53:04.671Z,17.60
2018-07-04T20:55:44.356Z,17.60
2018-07-04T20:58:24.033Z,17.60
2018-07-04T21:01:03.714Z,17.70
2018-07-04T21:03:43.389Z,17.60
2018-07-04T21:06:23.019Z,17.60
2018-07-04T21:09:02.737Z,17.60
2018-07-04T21:11:42.248Z,17.60
2018-07-04T21:14:21.832Z,17.60
2018-07-04T21:19:35.151Z,17.60
2018-07-04T21:22:14.694Z,17.60
2018-07-04T21:24:54.201Z,17.60
2018-07-04T21:27:34.007Z,17.50
2018-07-04T21:30:13.588Z,17.50
2018-07-04T21:32:53.131Z,17.50
2018-07-04T21:35:32.909Z,17.40
2018-07-04T21:38:12.312Z,17.50
2018-07-04T21:40:52.025Z,17.50
2018-07-04T21:43:31.532Z,17.40
2018-07-04T21:46:11.034Z,17.40
2018-07-04T21:48:50.706Z,17.30
2018-07-04T21:51:30.386Z,17.30
2018-07-04T21:54:09.906Z,17.20
2018-07-04T21:56:49.570Z,17.20
2018-07-04T21:59:29.118Z,17.20
2018-07-04T22:02:08.760Z,17.20
2018-07-04T22:04:48.444Z,17.10
2018-07-04T22:07:27.949Z,17.10
2018-07-04T22:10:07.505Z,17.10
2018-07-04T22:12:47.233Z,17.10
2018-07-04T22:15:26.744Z,17.00
2018-07-04T22:18:06.462Z,17.00
2018-07-04T22:20:46.260Z,17.00
2018-07-04T22:23:26.524Z,16.90
2018-07-04T22:26:06.191Z,16.90
2018-07-04T22:28:45.755Z,16.80
2018-07-04T22:31:25.424Z,16.80
2018-07-04T22:34:05.128Z,16.80
2018-07-04T22:36:44.852Z,16.80
2018-07-04T22:39:24.451Z,16.80
2018-07-04T22:42:04.139Z,16.70
2018-07-04T22:44:43.781Z,16.30
2018-07-04T22:47:23.411Z,16.30
2018-07-04T22:50:03.075Z,16.40
2018-07-04T22:52:42.733Z,16.40
2018-07-04T22:55:22.452Z,16.40
2018-07-04T22:58:01.939Z,16.30
2018-07-04T23:00:41.493Z,16.20
2018-07-04T23:03:21.029Z,16.10
2018-07-04T23:06:00.561Z,16.10
2018-07-04T23:08:40.194Z,15.90
2018-07-04T23:11:19.883Z,15.80
2018-07-04T23:16:33.124Z,15.90
2018-07-04T23:19:12.803Z,16.00
2018-07-04T23:21:52.508Z,16.00
2018-07-04T23:24:32.298Z,16.00
2018-07-04T23:27:12.038Z,15.90
2018-07-04T23:29:51.683Z,15.70
2018-07-04T23:32:31.324Z,15.70
2018-07-04T23:35:10.862Z,15.70
2018-07-04T23:37:50.471Z,15.70
2018-07-04T23:40:30.265Z,15.70
2018-07-04T23:43:10.154Z,15.80
2018-07-04T23:45:50.181Z,15.90
2018-07-04T23:48:29.756Z,16.00
2018-07-04T23:51:09.232Z,16.10
2018-07-04T23:53:49.422Z,16.10
2018-07-04T23:56:29.054Z,16.10
2018-07-04T23:59:08.798Z,15.90
